CDC5852 ZGGG-ZBAD
Flight info
| Callsign | CDC5852 |
|---|---|
| Flight time | 2h 36m |
| Altitude | 35100 |
| Route | MIKIP A461 BUBDA W56 LEBUN W57 BEKDO W157 AVBOX |
| Aircraft | A320/M-SDE3FGHILORWXY/LB1 |
Departure
| Time | 2026-04-22 06:56 |
|---|---|
| Airport | Guangzhou Baiyun International Airport (ZGGG) |
Arrival
| Time | 2026-04-22 09:33 |
|---|---|
| Airport | Beijing Daxing International Airport (ZBAD) |
| Time | Latitude | Longitude | Altitude | Speed | Heading |
|---|---|---|---|---|---|
| 2026-04-22 06:25 | 23.38739 | 113.30246 | 86 ft | 0 kts | 28° |
| 2026-04-22 06:42 | 23.38730 | 113.30240 | 53 ft | 2 kts | 28° |
| 2026-04-22 06:42 | 23.38715 | 113.30232 | 56 ft | 2 kts | 28° |
| 2026-04-22 06:42 | 23.38701 | 113.30224 | 51 ft | 2 kts | 28° |
| 2026-04-22 06:42 | 23.38686 | 113.30215 | 51 ft | 2 kts | 28° |
| 2026-04-22 06:43 | 23.38672 | 113.30207 | 55 ft | 2 kts | 30° |
| 2026-04-22 06:43 | 23.38659 | 113.30195 | 55 ft | 2 kts | 71° |
| 2026-04-22 06:43 | 23.38657 | 113.30178 | 54 ft | 2 kts | 109° |
| 2026-04-22 06:43 | 23.38659 | 113.30172 | 56 ft | 0 kts | 118° |
| 2026-04-22 06:45 | 23.38651 | 113.30189 | 55 ft | 5 kts | 116° |
| 2026-04-22 06:45 | 23.38618 | 113.30260 | 52 ft | 13 kts | 117° |
| 2026-04-22 06:45 | 23.38578 | 113.30351 | 56 ft | 14 kts | 108° |
| 2026-04-22 06:46 | 23.38554 | 113.30453 | 57 ft | 14 kts | 103° |
| 2026-04-22 06:46 | 23.38532 | 113.30555 | 52 ft | 14 kts | 97° |
| 2026-04-22 06:46 | 23.38591 | 113.30609 | 51 ft | 12 kts | 13° |
| 2026-04-22 06:46 | 23.38665 | 113.30629 | 55 ft | 10 kts | 14° |
| 2026-04-22 06:47 | 23.38735 | 113.30647 | 52 ft | 13 kts | 14° |
| 2026-04-22 06:47 | 23.38866 | 113.30683 | 53 ft | 24 kts | 14° |
| 2026-04-22 06:47 | 23.39023 | 113.30725 | 52 ft | 23 kts | 14° |
| 2026-04-22 06:47 | 23.39172 | 113.30765 | 53 ft | 21 kts | 14° |
| 2026-04-22 06:48 | 23.39311 | 113.30803 | 53 ft | 20 kts | 14° |
| 2026-04-22 06:48 | 23.39443 | 113.30838 | 57 ft | 19 kts | 14° |
| 2026-04-22 06:48 | 23.39562 | 113.30870 | 52 ft | 17 kts | 14° |
| 2026-04-22 06:48 | 23.39671 | 113.30900 | 52 ft | 15 kts | 14° |
| 2026-04-22 06:49 | 23.39769 | 113.30926 | 55 ft | 14 kts | 14° |
| 2026-04-22 06:49 | 23.39859 | 113.30951 | 51 ft | 13 kts | 15° |
| 2026-04-22 06:49 | 23.39938 | 113.30974 | 53 ft | 11 kts | 15° |
| 2026-04-22 06:49 | 23.40011 | 113.30992 | 57 ft | 10 kts | 13° |
| 2026-04-22 06:50 | 23.40075 | 113.31009 | 53 ft | 9 kts | 13° |
| 2026-04-22 06:50 | 23.40132 | 113.31024 | 56 ft | 8 kts | 13° |
| 2026-04-22 06:50 | 23.40182 | 113.31037 | 57 ft | 7 kts | 14° |
| 2026-04-22 06:50 | 23.40226 | 113.31050 | 52 ft | 6 kts | 14° |
| 2026-04-22 06:51 | 23.40264 | 113.31060 | 53 ft | 7 kts | 14° |
| 2026-04-22 06:51 | 23.40333 | 113.31080 | 52 ft | 14 kts | 14° |
| 2026-04-22 06:51 | 23.40422 | 113.31103 | 52 ft | 12 kts | 13° |
| 2026-04-22 06:51 | 23.40501 | 113.31123 | 53 ft | 11 kts | 13° |
| 2026-04-22 06:52 | 23.40572 | 113.31143 | 52 ft | 10 kts | 14° |
| 2026-04-22 06:52 | 23.40636 | 113.31161 | 50 ft | 9 kts | 14° |
| 2026-04-22 06:52 | 23.40708 | 113.31180 | 51 ft | 15 kts | 14° |
| 2026-04-22 06:52 | 23.40839 | 113.31216 | 53 ft | 22 kts | 14° |
| 2026-04-22 06:53 | 23.40921 | 113.31263 | 54 ft | 9 kts | 85° |
| 2026-04-22 06:53 | 23.40914 | 113.31301 | 58 ft | 0 kts | 104° |
| 2026-04-22 06:54 | 23.40902 | 113.31351 | 55 ft | 11 kts | 104° |
| 2026-04-22 06:54 | 23.40880 | 113.31425 | 57 ft | 3 kts | 131° |
| 2026-04-22 06:55 | 23.40869 | 113.31425 | 51 ft | 2 kts | 181° |
| 2026-04-22 06:55 | 23.40859 | 113.31422 | 53 ft | 1 kts | 193° |
| 2026-04-22 06:55 | 23.40803 | 113.31408 | 55 ft | 21 kts | 192° |
| 2026-04-22 06:55 | 23.40535 | 113.31335 | 53 ft | 69 kts | 195° |
| 2026-04-22 06:56 | 23.40119 | 113.31223 | 55 ft | 112 kts | 194° |
| 2026-04-22 06:56 | 23.39192 | 113.30973 | 111 ft | 157 kts | 193° |
| 2026-04-22 06:56 | 23.38167 | 113.30712 | 857 ft | 149 kts | 194° |
| 2026-04-22 06:56 | 23.37176 | 113.30452 | 1552 ft | 148 kts | 195° |
| 2026-04-22 06:57 | 23.36137 | 113.30169 | 2145 ft | 161 kts | 196° |
| 2026-04-22 06:57 | 23.34978 | 113.29849 | 2494 ft | 183 kts | 195° |
| 2026-04-22 06:57 | 23.33669 | 113.29489 | 2768 ft | 205 kts | 195° |
| 2026-04-22 06:57 | 23.32239 | 113.29098 | 3160 ft | 224 kts | 195° |
| 2026-04-22 06:58 | 23.30708 | 113.28681 | 3921 ft | 229 kts | 196° |
| 2026-04-22 06:58 | 23.29066 | 113.28427 | 4494 ft | 250 kts | 184° |
| 2026-04-22 06:58 | 23.27283 | 113.28401 | 5210 ft | 261 kts | 184° |
| 2026-04-22 06:58 | 23.25446 | 113.28393 | 5992 ft | 267 kts | 184° |
| 2026-04-22 06:59 | 23.23566 | 113.28388 | 6775 ft | 272 kts | 184° |
| 2026-04-22 06:59 | 23.21655 | 113.28382 | 7559 ft | 277 kts | 185° |
| 2026-04-22 06:59 | 23.19713 | 113.28372 | 8361 ft | 281 kts | 186° |
| 2026-04-22 06:59 | 23.17778 | 113.28113 | 9155 ft | 281 kts | 197° |
| 2026-04-22 07:00 | 23.15861 | 113.27646 | 9946 ft | 285 kts | 197° |
| 2026-04-22 07:00 | 23.13804 | 113.27482 | 10255 ft | 316 kts | 175° |
| 2026-04-22 07:00 | 23.11687 | 113.28465 | 10462 ft | 352 kts | 147° |
| 2026-04-22 07:00 | 23.10126 | 113.30378 | 10589 ft | 382 kts | 122° |
| 2026-04-22 07:01 | 23.09244 | 113.33189 | 10750 ft | 407 kts | 100° |
| 2026-04-22 07:01 | 23.09107 | 113.36305 | 11208 ft | 418 kts | 87° |
| 2026-04-22 07:01 | 23.09557 | 113.39437 | 11798 ft | 422 kts | 73° |
| 2026-04-22 07:01 | 23.10802 | 113.42317 | 12395 ft | 423 kts | 52° |
| 2026-04-22 07:02 | 23.12715 | 113.44719 | 12994 ft | 425 kts | 45° |
| 2026-04-22 07:02 | 23.14600 | 113.47217 | 13588 ft | 429 kts | 50° |
| 2026-04-22 07:02 | 23.16618 | 113.49601 | 14115 ft | 429 kts | 37° |
| 2026-04-22 07:02 | 23.19103 | 113.51361 | 14630 ft | 426 kts | 21° |
| 2026-04-22 07:03 | 23.21916 | 113.52276 | 15139 ft | 420 kts | 3° |
| 2026-04-22 07:03 | 23.24783 | 113.52326 | 15666 ft | 418 kts | 354° |
| 2026-04-22 07:03 | 23.27718 | 113.52441 | 16175 ft | 425 kts | 3° |
| 2026-04-22 07:03 | 23.30644 | 113.53065 | 16622 ft | 432 kts | 9° |
| 2026-04-22 07:04 | 23.33593 | 113.53751 | 17104 ft | 433 kts | 7° |
| 2026-04-22 07:04 | 23.36561 | 113.54350 | 17571 ft | 435 kts | 6° |
| 2026-04-22 07:04 | 23.39553 | 113.54907 | 18018 ft | 437 kts | 6° |
| 2026-04-22 07:04 | 23.42573 | 113.55235 | 18396 ft | 435 kts | 356° |
| 2026-04-22 07:05 | 23.45572 | 113.54939 | 18776 ft | 432 kts | 345° |
| 2026-04-22 07:05 | 23.48459 | 113.54062 | 19158 ft | 429 kts | 335° |
| 2026-04-22 07:05 | 23.51124 | 113.52638 | 19535 ft | 426 kts | 324° |
| 2026-04-22 07:05 | 23.53478 | 113.50693 | 19905 ft | 424 kts | 314° |
| 2026-04-22 07:06 | 23.55613 | 113.48464 | 20261 ft | 426 kts | 313° |
| 2026-04-22 07:06 | 23.57753 | 113.46214 | 20627 ft | 428 kts | 313° |
| 2026-04-22 07:06 | 23.59874 | 113.43981 | 20980 ft | 430 kts | 313° |
| 2026-04-22 07:06 | 23.62034 | 113.41711 | 21334 ft | 433 kts | 313° |
| 2026-04-22 07:07 | 23.64268 | 113.39495 | 21686 ft | 437 kts | 319° |
| 2026-04-22 07:07 | 23.66854 | 113.37711 | 22036 ft | 444 kts | 330° |
| 2026-04-22 07:07 | 23.69762 | 113.36497 | 22348 ft | 451 kts | 341° |
| 2026-04-22 07:07 | 23.72875 | 113.35941 | 22654 ft | 459 kts | 353° |
| 2026-04-22 07:08 | 23.76099 | 113.36064 | 22951 ft | 466 kts | 1° |
| 2026-04-22 07:08 | 23.79333 | 113.36400 | 23242 ft | 468 kts | 1° |
| 2026-04-22 07:08 | 23.82586 | 113.36735 | 23506 ft | 470 kts | 1° |
| 2026-04-22 07:08 | 23.85848 | 113.37067 | 23748 ft | 472 kts | 1° |
| 2026-04-22 07:09 | 23.89121 | 113.37396 | 23996 ft | 473 kts | 1° |
| 2026-04-22 07:09 | 23.92407 | 113.37722 | 24245 ft | 475 kts | 1° |
| 2026-04-22 07:09 | 23.95700 | 113.38048 | 24488 ft | 476 kts | 1° |
| 2026-04-22 07:09 | 23.99003 | 113.38376 | 24717 ft | 478 kts | 1° |
| 2026-04-22 07:10 | 24.02322 | 113.38709 | 24935 ft | 479 kts | 1° |
| 2026-04-22 07:10 | 24.05645 | 113.39043 | 25170 ft | 481 kts | 1° |
| 2026-04-22 07:10 | 24.08985 | 113.39382 | 25421 ft | 483 kts | 1° |
| 2026-04-22 07:10 | 24.12337 | 113.39725 | 25692 ft | 485 kts | 1° |
| 2026-04-22 07:11 | 24.15701 | 113.40072 | 25916 ft | 486 kts | 1° |
| 2026-04-22 07:11 | 24.19068 | 113.40416 | 26214 ft | 486 kts | 1° |
| 2026-04-22 07:11 | 24.22437 | 113.40757 | 26581 ft | 485 kts | 0° |
| 2026-04-22 07:11 | 24.25792 | 113.41096 | 26917 ft | 484 kts | 0° |
| 2026-04-22 07:12 | 24.29140 | 113.41435 | 27254 ft | 483 kts | 0° |
| 2026-04-22 07:12 | 24.32446 | 113.41771 | 27583 ft | 482 kts | 0° |
| 2026-04-22 07:12 | 24.35784 | 113.42095 | 27960 ft | 481 kts | 359° |
| 2026-04-22 07:12 | 24.39117 | 113.42307 | 28418 ft | 479 kts | 357° |
| 2026-04-22 07:13 | 24.42434 | 113.42411 | 28886 ft | 476 kts | 355° |
| 2026-04-22 07:13 | 24.45741 | 113.42453 | 29384 ft | 474 kts | 354° |
| 2026-04-22 07:13 | 24.49047 | 113.42477 | 29855 ft | 473 kts | 354° |
| 2026-04-22 07:13 | 24.52333 | 113.42510 | 30335 ft | 471 kts | 355° |
| 2026-04-22 07:14 | 24.55607 | 113.42570 | 30702 ft | 470 kts | 355° |
| 2026-04-22 07:14 | 24.58865 | 113.42653 | 31039 ft | 468 kts | 355° |
| 2026-04-22 07:14 | 24.62119 | 113.42754 | 31368 ft | 467 kts | 355° |
| 2026-04-22 07:14 | 24.65356 | 113.42859 | 31707 ft | 465 kts | 355° |
| 2026-04-22 07:15 | 24.68587 | 113.42962 | 32084 ft | 463 kts | 355° |
| 2026-04-22 07:15 | 24.71804 | 113.43061 | 32465 ft | 461 kts | 355° |
| 2026-04-22 07:15 | 24.75003 | 113.43155 | 32863 ft | 459 kts | 355° |
| 2026-04-22 07:15 | 24.78185 | 113.43248 | 33216 ft | 457 kts | 355° |
| 2026-04-22 07:16 | 24.81354 | 113.43340 | 33558 ft | 455 kts | 354° |
| 2026-04-22 07:16 | 24.84514 | 113.43428 | 33966 ft | 453 kts | 354° |
| 2026-04-22 07:16 | 24.87654 | 113.43512 | 34297 ft | 451 kts | 354° |
| 2026-04-22 07:16 | 24.90786 | 113.43596 | 34607 ft | 450 kts | 354° |
| 2026-04-22 07:17 | 24.93912 | 113.43683 | 34882 ft | 449 kts | 354° |
| 2026-04-22 07:17 | 25.00180 | 113.43863 | 34985 ft | 452 kts | 354° |
| 2026-04-22 07:18 | 25.06429 | 113.44042 | 34993 ft | 452 kts | 354° |
| 2026-04-22 07:18 | 25.12721 | 113.44224 | 34995 ft | 452 kts | 354° |
| 2026-04-22 07:19 | 25.19007 | 113.44411 | 35008 ft | 452 kts | 354° |
| 2026-04-22 07:19 | 25.25286 | 113.44590 | 35019 ft | 451 kts | 354° |
| 2026-04-22 07:20 | 25.31558 | 113.44768 | 35030 ft | 452 kts | 354° |
| 2026-04-22 07:20 | 25.37846 | 113.44945 | 35037 ft | 452 kts | 354° |
| 2026-04-22 07:21 | 25.44097 | 113.45126 | 35039 ft | 452 kts | 354° |
| 2026-04-22 07:21 | 25.50432 | 113.45310 | 35051 ft | 453 kts | 354° |
| 2026-04-22 07:22 | 25.56693 | 113.45489 | 35059 ft | 452 kts | 354° |
| 2026-04-22 07:22 | 25.62995 | 113.45673 | 35064 ft | 453 kts | 354° |
| 2026-04-22 07:23 | 25.69297 | 113.45859 | 35069 ft | 453 kts | 354° |
| 2026-04-22 07:23 | 25.75606 | 113.46036 | 35073 ft | 454 kts | 354° |
| 2026-04-22 07:24 | 25.81922 | 113.46207 | 35079 ft | 454 kts | 354° |
| 2026-04-22 07:24 | 25.88247 | 113.46368 | 35083 ft | 454 kts | 353° |
| 2026-04-22 07:25 | 25.94547 | 113.46221 | 35086 ft | 452 kts | 351° |
| 2026-04-22 07:25 | 26.00826 | 113.45881 | 35092 ft | 452 kts | 350° |
| 2026-04-22 07:26 | 26.07113 | 113.45562 | 35094 ft | 453 kts | 351° |
| 2026-04-22 07:26 | 26.13380 | 113.45310 | 35094 ft | 454 kts | 351° |
| 2026-04-22 07:27 | 26.19694 | 113.45092 | 35099 ft | 454 kts | 351° |
| 2026-04-22 07:27 | 26.26009 | 113.44863 | 35096 ft | 454 kts | 351° |
| 2026-04-22 07:28 | 26.35487 | 113.44494 | 35101 ft | 455 kts | 351° |
| 2026-04-22 07:28 | 26.41825 | 113.44254 | 35107 ft | 456 kts | 351° |
| 2026-04-22 07:29 | 26.48164 | 113.44016 | 35112 ft | 455 kts | 351° |
| 2026-04-22 07:29 | 26.54504 | 113.43765 | 35112 ft | 456 kts | 350° |
| 2026-04-22 07:30 | 26.60842 | 113.43514 | 35118 ft | 456 kts | 350° |
| 2026-04-22 07:30 | 26.67187 | 113.43269 | 35121 ft | 456 kts | 350° |
| 2026-04-22 07:31 | 26.73542 | 113.43028 | 35125 ft | 457 kts | 350° |
| 2026-04-22 07:31 | 26.79892 | 113.42790 | 35117 ft | 456 kts | 350° |
| 2026-04-22 07:32 | 26.86194 | 113.42553 | 35121 ft | 456 kts | 350° |
| 2026-04-22 07:32 | 26.92576 | 113.42302 | 35121 ft | 456 kts | 349° |
| 2026-04-22 07:33 | 26.98888 | 113.42052 | 35120 ft | 457 kts | 349° |
| 2026-04-22 07:33 | 27.05237 | 113.41806 | 35114 ft | 456 kts | 349° |
| 2026-04-22 07:34 | 27.11584 | 113.41568 | 35116 ft | 456 kts | 349° |
| 2026-04-22 07:34 | 27.17936 | 113.41325 | 35118 ft | 456 kts | 349° |
| 2026-04-22 07:35 | 27.24279 | 113.41081 | 35116 ft | 456 kts | 349° |
| 2026-04-22 07:35 | 27.30624 | 113.40834 | 35111 ft | 456 kts | 349° |
| 2026-04-22 07:36 | 27.36985 | 113.40696 | 35102 ft | 459 kts | 351° |
| 2026-04-22 07:36 | 27.43380 | 113.40861 | 35102 ft | 461 kts | 353° |
| 2026-04-22 07:37 | 27.49788 | 113.41087 | 35096 ft | 460 kts | 353° |
| 2026-04-22 07:37 | 27.56194 | 113.41238 | 35098 ft | 460 kts | 352° |
| 2026-04-22 07:38 | 27.62595 | 113.41342 | 35098 ft | 460 kts | 352° |
| 2026-04-22 07:38 | 27.69020 | 113.41557 | 35100 ft | 464 kts | 354° |
| 2026-04-22 07:39 | 27.75476 | 113.42146 | 35104 ft | 467 kts | 356° |
| 2026-04-22 07:39 | 27.81943 | 113.42843 | 35104 ft | 467 kts | 356° |
| 2026-04-22 07:40 | 27.88408 | 113.43462 | 35101 ft | 466 kts | 355° |
| 2026-04-22 07:40 | 27.94871 | 113.44015 | 35100 ft | 465 kts | 355° |
| 2026-04-22 07:41 | 28.01329 | 113.44559 | 35101 ft | 466 kts | 355° |
| 2026-04-22 07:41 | 28.07750 | 113.45116 | 35098 ft | 466 kts | 355° |
| 2026-04-22 07:42 | 28.14214 | 113.45649 | 35096 ft | 465 kts | 354° |
| 2026-04-22 07:42 | 28.20673 | 113.46090 | 35103 ft | 465 kts | 354° |
| 2026-04-22 07:43 | 28.27128 | 113.46517 | 35101 ft | 465 kts | 354° |
| 2026-04-22 07:43 | 28.32496 | 113.46900 | 35103 ft | 465 kts | 354° |
| 2026-04-22 07:44 | 28.38956 | 113.47375 | 35107 ft | 465 kts | 354° |
| 2026-04-22 07:44 | 28.45410 | 113.47847 | 35107 ft | 465 kts | 354° |
| 2026-04-22 07:45 | 28.51870 | 113.48309 | 35113 ft | 465 kts | 354° |
| 2026-04-22 07:45 | 28.58318 | 113.48768 | 35108 ft | 464 kts | 354° |
| 2026-04-22 07:46 | 28.64770 | 113.49224 | 35113 ft | 464 kts | 354° |
| 2026-04-22 07:46 | 28.71220 | 113.49680 | 35112 ft | 464 kts | 354° |
| 2026-04-22 07:47 | 28.77623 | 113.50146 | 35113 ft | 464 kts | 354° |
| 2026-04-22 07:47 | 28.84065 | 113.50610 | 35119 ft | 464 kts | 354° |
| 2026-04-22 07:48 | 28.90511 | 113.51074 | 35111 ft | 464 kts | 354° |
| 2026-04-22 07:48 | 28.96957 | 113.51534 | 35109 ft | 464 kts | 354° |
| 2026-04-22 07:49 | 29.03406 | 113.51986 | 35106 ft | 464 kts | 354° |
| 2026-04-22 07:49 | 29.09861 | 113.52455 | 35107 ft | 465 kts | 354° |
| 2026-04-22 07:50 | 29.16312 | 113.52929 | 35107 ft | 464 kts | 354° |
| 2026-04-22 07:50 | 29.22763 | 113.53400 | 35110 ft | 464 kts | 354° |
| 2026-04-22 07:51 | 29.29217 | 113.53871 | 35112 ft | 464 kts | 354° |
| 2026-04-22 07:51 | 29.35662 | 113.54390 | 35111 ft | 465 kts | 355° |
| 2026-04-22 07:52 | 29.42113 | 113.54970 | 35107 ft | 465 kts | 355° |
| 2026-04-22 07:52 | 29.48565 | 113.55555 | 35108 ft | 465 kts | 355° |
| 2026-04-22 07:53 | 29.55009 | 113.56115 | 35107 ft | 464 kts | 354° |
| 2026-04-22 07:53 | 29.61452 | 113.56671 | 35108 ft | 464 kts | 354° |
| 2026-04-22 07:54 | 29.67889 | 113.57224 | 35107 ft | 464 kts | 354° |
| 2026-04-22 07:54 | 29.74327 | 113.57781 | 35090 ft | 463 kts | 354° |
| 2026-04-22 07:55 | 29.80757 | 113.58345 | 35093 ft | 463 kts | 354° |
| 2026-04-22 07:55 | 29.87183 | 113.58913 | 35091 ft | 463 kts | 354° |
| 2026-04-22 07:56 | 29.93614 | 113.59647 | 35083 ft | 472 kts | 2° |
| 2026-04-22 07:56 | 29.99800 | 113.62175 | 35079 ft | 467 kts | 14° |
| 2026-04-22 07:57 | 30.02722 | 113.63663 | 35079 ft | 451 kts | 14° |
| 2026-04-22 07:57 | 30.05546 | 113.65101 | 35081 ft | 436 kts | 13° |
| 2026-04-22 07:57 | 30.08270 | 113.66479 | 35081 ft | 421 kts | 13° |
| 2026-04-22 07:57 | 30.10941 | 113.67813 | 35081 ft | 414 kts | 12° |
| 2026-04-22 07:58 | 30.16218 | 113.70409 | 35078 ft | 411 kts | 12° |
| 2026-04-22 07:58 | 30.21474 | 113.72999 | 35076 ft | 411 kts | 12° |
| 2026-04-22 07:59 | 30.26723 | 113.75621 | 35078 ft | 411 kts | 12° |
| 2026-04-22 07:59 | 30.31969 | 113.78261 | 35073 ft | 411 kts | 12° |
| 2026-04-22 08:00 | 30.37217 | 113.80898 | 35078 ft | 411 kts | 12° |
| 2026-04-22 08:00 | 30.42471 | 113.83531 | 35072 ft | 411 kts | 12° |
| 2026-04-22 08:01 | 30.47721 | 113.86169 | 35067 ft | 411 kts | 13° |
| 2026-04-22 08:01 | 30.52975 | 113.88820 | 35071 ft | 411 kts | 13° |
| 2026-04-22 08:02 | 30.58225 | 113.91469 | 35074 ft | 411 kts | 13° |
| 2026-04-22 08:02 | 30.63441 | 113.94101 | 35074 ft | 411 kts | 12° |
| 2026-04-22 08:03 | 30.68703 | 113.96679 | 35075 ft | 410 kts | 11° |
| 2026-04-22 08:03 | 30.73952 | 113.99342 | 35079 ft | 414 kts | 14° |
| 2026-04-22 08:04 | 30.79140 | 114.02282 | 35084 ft | 415 kts | 15° |
| 2026-04-22 08:04 | 30.84328 | 114.05191 | 35080 ft | 413 kts | 13° |
| 2026-04-22 08:05 | 30.89528 | 114.08016 | 35082 ft | 412 kts | 13° |
| 2026-04-22 08:05 | 30.94735 | 114.10812 | 35087 ft | 412 kts | 12° |
| 2026-04-22 08:06 | 30.99932 | 114.13619 | 35083 ft | 411 kts | 12° |
| 2026-04-22 08:06 | 31.05115 | 114.16434 | 35077 ft | 411 kts | 12° |
| 2026-04-22 08:07 | 31.10297 | 114.19254 | 35069 ft | 411 kts | 13° |
| 2026-04-22 08:07 | 31.15479 | 114.22074 | 35068 ft | 411 kts | 13° |
| 2026-04-22 08:08 | 31.20668 | 114.24895 | 35069 ft | 411 kts | 13° |
| 2026-04-22 08:08 | 31.25850 | 114.27728 | 35067 ft | 412 kts | 14° |
| 2026-04-22 08:09 | 31.31037 | 114.30572 | 35072 ft | 412 kts | 14° |
| 2026-04-22 08:09 | 31.36333 | 114.32721 | 35078 ft | 393 kts | 360° |
| 2026-04-22 08:10 | 31.41646 | 114.33333 | 35078 ft | 378 kts | 350° |
| 2026-04-22 08:10 | 31.46884 | 114.33484 | 35072 ft | 379 kts | 350° |
| 2026-04-22 08:11 | 31.52171 | 114.33645 | 35068 ft | 380 kts | 351° |
| 2026-04-22 08:11 | 31.57458 | 114.33797 | 35071 ft | 381 kts | 351° |
| 2026-04-22 08:12 | 31.62765 | 114.33954 | 35070 ft | 382 kts | 351° |
| 2026-04-22 08:12 | 31.68073 | 114.34112 | 35068 ft | 383 kts | 352° |
| 2026-04-22 08:13 | 31.73402 | 114.34270 | 35069 ft | 383 kts | 352° |
| 2026-04-22 08:13 | 31.78742 | 114.34431 | 35074 ft | 384 kts | 352° |
| 2026-04-22 08:14 | 31.84101 | 114.34598 | 35077 ft | 385 kts | 353° |
| 2026-04-22 08:14 | 31.89474 | 114.34757 | 35082 ft | 386 kts | 353° |
| 2026-04-22 08:15 | 31.94851 | 114.34918 | 35090 ft | 387 kts | 353° |
| 2026-04-22 08:15 | 32.00227 | 114.35085 | 35092 ft | 386 kts | 353° |
| 2026-04-22 08:16 | 32.05609 | 114.35246 | 35095 ft | 386 kts | 353° |
| 2026-04-22 08:16 | 32.10948 | 114.35408 | 35101 ft | 387 kts | 353° |
| 2026-04-22 08:17 | 32.16326 | 114.35577 | 35102 ft | 387 kts | 353° |
| 2026-04-22 08:17 | 32.21707 | 114.35733 | 35107 ft | 386 kts | 353° |
| 2026-04-22 08:18 | 32.27087 | 114.35913 | 35115 ft | 387 kts | 355° |
| 2026-04-22 08:18 | 32.32481 | 114.36367 | 35113 ft | 389 kts | 357° |
| 2026-04-22 08:19 | 32.37874 | 114.36936 | 35115 ft | 389 kts | 357° |
| 2026-04-22 08:19 | 32.43265 | 114.37472 | 35117 ft | 388 kts | 356° |
| 2026-04-22 08:20 | 32.48653 | 114.37967 | 35116 ft | 388 kts | 356° |
| 2026-04-22 08:20 | 32.54038 | 114.38451 | 35119 ft | 388 kts | 356° |
| 2026-04-22 08:21 | 32.59425 | 114.38940 | 35120 ft | 388 kts | 356° |
| 2026-04-22 08:21 | 32.64806 | 114.39432 | 35119 ft | 388 kts | 356° |
| 2026-04-22 08:22 | 32.70191 | 114.39928 | 35119 ft | 388 kts | 356° |
| 2026-04-22 08:22 | 32.75569 | 114.40435 | 35112 ft | 388 kts | 356° |
| 2026-04-22 08:23 | 32.80952 | 114.40940 | 35108 ft | 388 kts | 356° |
| 2026-04-22 08:23 | 32.86330 | 114.41446 | 35105 ft | 388 kts | 356° |
| 2026-04-22 08:24 | 32.91686 | 114.41941 | 35100 ft | 388 kts | 356° |
| 2026-04-22 08:24 | 32.97079 | 114.42435 | 35108 ft | 389 kts | 356° |
| 2026-04-22 08:25 | 33.02470 | 114.42943 | 35106 ft | 389 kts | 356° |
| 2026-04-22 08:25 | 33.07878 | 114.43453 | 35106 ft | 390 kts | 356° |
| 2026-04-22 08:26 | 33.13286 | 114.43957 | 35103 ft | 390 kts | 356° |
| 2026-04-22 08:26 | 33.18697 | 114.44465 | 35102 ft | 390 kts | 356° |
| 2026-04-22 08:27 | 33.23225 | 114.44889 | 35104 ft | 390 kts | 356° |
| 2026-04-22 08:27 | 33.28603 | 114.45394 | 35100 ft | 391 kts | 356° |
| 2026-04-22 08:28 | 33.34024 | 114.45907 | 35099 ft | 391 kts | 356° |
| 2026-04-22 08:28 | 33.39458 | 114.46419 | 35099 ft | 392 kts | 356° |
| 2026-04-22 08:29 | 33.44897 | 114.46932 | 35103 ft | 392 kts | 356° |
| 2026-04-22 08:29 | 33.50346 | 114.47445 | 35104 ft | 393 kts | 356° |
| 2026-04-22 08:30 | 33.55795 | 114.47958 | 35101 ft | 393 kts | 356° |
| 2026-04-22 08:30 | 33.61229 | 114.48472 | 35098 ft | 394 kts | 356° |
| 2026-04-22 08:31 | 33.66697 | 114.48982 | 35098 ft | 394 kts | 356° |
| 2026-04-22 08:32 | 33.74916 | 114.49754 | 35099 ft | 395 kts | 356° |
| 2026-04-22 08:32 | 33.80408 | 114.50267 | 35097 ft | 396 kts | 356° |
| 2026-04-22 08:33 | 33.85911 | 114.50786 | 35095 ft | 397 kts | 356° |
| 2026-04-22 08:33 | 33.91417 | 114.51299 | 35091 ft | 397 kts | 356° |
| 2026-04-22 08:34 | 33.96941 | 114.51821 | 35092 ft | 398 kts | 356° |
| 2026-04-22 08:34 | 34.02474 | 114.52345 | 35093 ft | 399 kts | 356° |
| 2026-04-22 08:35 | 34.08017 | 114.52871 | 35094 ft | 400 kts | 356° |
| 2026-04-22 08:35 | 34.13575 | 114.53398 | 35095 ft | 401 kts | 356° |
| 2026-04-22 08:36 | 34.19105 | 114.53922 | 35090 ft | 402 kts | 356° |
| 2026-04-22 08:36 | 34.24685 | 114.54449 | 35093 ft | 403 kts | 356° |
| 2026-04-22 08:37 | 34.30278 | 114.54980 | 35083 ft | 404 kts | 356° |
| 2026-04-22 08:37 | 34.35886 | 114.55512 | 35088 ft | 405 kts | 356° |
| 2026-04-22 08:38 | 34.41506 | 114.56050 | 35089 ft | 405 kts | 356° |
| 2026-04-22 08:38 | 34.47143 | 114.56586 | 35090 ft | 406 kts | 356° |
| 2026-04-22 08:39 | 34.52780 | 114.57123 | 35089 ft | 407 kts | 356° |
| 2026-04-22 08:39 | 34.58420 | 114.57657 | 35090 ft | 407 kts | 356° |
| 2026-04-22 08:40 | 34.64075 | 114.58190 | 35092 ft | 407 kts | 356° |
| 2026-04-22 08:40 | 34.69731 | 114.58725 | 35090 ft | 408 kts | 356° |
| 2026-04-22 08:41 | 34.75401 | 114.59271 | 35090 ft | 409 kts | 356° |
| 2026-04-22 08:41 | 34.81066 | 114.59818 | 35089 ft | 409 kts | 355° |
| 2026-04-22 08:42 | 34.86740 | 114.60358 | 35088 ft | 409 kts | 355° |
| 2026-04-22 08:42 | 34.92429 | 114.60901 | 35084 ft | 409 kts | 355° |
| 2026-04-22 08:43 | 34.98105 | 114.61441 | 35085 ft | 410 kts | 355° |
| 2026-04-22 08:43 | 35.03799 | 114.61985 | 35084 ft | 410 kts | 355° |
| 2026-04-22 08:44 | 35.09463 | 114.62523 | 35093 ft | 411 kts | 355° |
| 2026-04-22 08:44 | 35.15166 | 114.63072 | 35092 ft | 411 kts | 355° |
| 2026-04-22 08:45 | 35.20864 | 114.63633 | 35087 ft | 411 kts | 354° |
| 2026-04-22 08:45 | 35.26564 | 114.64187 | 35092 ft | 411 kts | 354° |
| 2026-04-22 08:46 | 35.32262 | 114.64729 | 35083 ft | 410 kts | 354° |
| 2026-04-22 08:46 | 35.37958 | 114.65273 | 35080 ft | 410 kts | 354° |
| 2026-04-22 08:47 | 35.43655 | 114.65822 | 35076 ft | 411 kts | 354° |
| 2026-04-22 08:47 | 35.49354 | 114.66380 | 35071 ft | 411 kts | 354° |
| 2026-04-22 08:48 | 35.55049 | 114.66937 | 35073 ft | 411 kts | 353° |
| 2026-04-22 08:48 | 35.60755 | 114.67495 | 35078 ft | 411 kts | 353° |
| 2026-04-22 08:49 | 35.66454 | 114.68044 | 35079 ft | 411 kts | 353° |
| 2026-04-22 08:49 | 35.72120 | 114.68593 | 35077 ft | 411 kts | 353° |
| 2026-04-22 08:50 | 35.77824 | 114.69154 | 35078 ft | 411 kts | 353° |
| 2026-04-22 08:50 | 35.83526 | 114.69712 | 35082 ft | 411 kts | 353° |
| 2026-04-22 08:51 | 35.89225 | 114.70269 | 35087 ft | 411 kts | 353° |
| 2026-04-22 08:51 | 35.94916 | 114.70832 | 35084 ft | 410 kts | 353° |
| 2026-04-22 08:52 | 36.00601 | 114.71384 | 35082 ft | 410 kts | 353° |
| 2026-04-22 08:52 | 36.06290 | 114.71933 | 35085 ft | 410 kts | 353° |
| 2026-04-22 08:53 | 36.11976 | 114.72495 | 35088 ft | 410 kts | 353° |
| 2026-04-22 08:53 | 36.17659 | 114.73060 | 35082 ft | 410 kts | 353° |
| 2026-04-22 08:54 | 36.23344 | 114.73620 | 35082 ft | 410 kts | 352° |
| 2026-04-22 08:54 | 36.28990 | 114.74177 | 35085 ft | 410 kts | 352° |
| 2026-04-22 08:55 | 36.34676 | 114.74742 | 35092 ft | 410 kts | 352° |
| 2026-04-22 08:55 | 36.40297 | 114.74904 | 35097 ft | 398 kts | 345° |
| 2026-04-22 08:56 | 36.45832 | 114.74639 | 35099 ft | 398 kts | 345° |
| 2026-04-22 08:56 | 36.51366 | 114.74383 | 35102 ft | 397 kts | 345° |
| 2026-04-22 08:57 | 36.56891 | 114.74144 | 35102 ft | 397 kts | 345° |
| 2026-04-22 08:57 | 36.62407 | 114.73900 | 35103 ft | 396 kts | 344° |
| 2026-04-22 08:58 | 36.67912 | 114.73644 | 35104 ft | 395 kts | 344° |
| 2026-04-22 08:58 | 36.73405 | 114.73401 | 35101 ft | 398 kts | 347° |
| 2026-04-22 08:58 | 36.76211 | 114.73622 | 35099 ft | 410 kts | 355° |
| 2026-04-22 08:59 | 36.79048 | 114.74344 | 35097 ft | 422 kts | 4° |
| 2026-04-22 08:59 | 36.81849 | 114.75588 | 35090 ft | 434 kts | 14° |
| 2026-04-22 08:59 | 36.84596 | 114.77189 | 35085 ft | 436 kts | 15° |
| 2026-04-22 09:00 | 36.90090 | 114.80390 | 35078 ft | 436 kts | 14° |
| 2026-04-22 09:00 | 36.95554 | 114.83561 | 35075 ft | 436 kts | 14° |
| 2026-04-22 09:01 | 37.01061 | 114.86761 | 35076 ft | 436 kts | 15° |
| 2026-04-22 09:01 | 37.06566 | 114.89984 | 35070 ft | 437 kts | 15° |
| 2026-04-22 09:02 | 37.12063 | 114.93212 | 35080 ft | 437 kts | 15° |
| 2026-04-22 09:02 | 37.17570 | 114.96437 | 35078 ft | 437 kts | 15° |
| 2026-04-22 09:03 | 37.23076 | 114.99667 | 35079 ft | 437 kts | 15° |
| 2026-04-22 09:03 | 37.28584 | 115.02904 | 35081 ft | 437 kts | 15° |
| 2026-04-22 09:04 | 37.34087 | 115.06153 | 35083 ft | 437 kts | 15° |
| 2026-04-22 09:04 | 37.39590 | 115.09392 | 35081 ft | 437 kts | 15° |
| 2026-04-22 09:05 | 37.45095 | 115.12645 | 35087 ft | 437 kts | 15° |
| 2026-04-22 09:05 | 37.50590 | 115.15908 | 35096 ft | 437 kts | 16° |
| 2026-04-22 09:06 | 37.56088 | 115.19163 | 35095 ft | 436 kts | 16° |
| 2026-04-22 09:06 | 37.61582 | 115.22417 | 35098 ft | 436 kts | 16° |
| 2026-04-22 09:07 | 37.67078 | 115.25680 | 35082 ft | 441 kts | 16° |
| 2026-04-22 09:07 | 37.69892 | 115.27341 | 35075 ft | 452 kts | 16° |
| 2026-04-22 09:07 | 37.72770 | 115.29037 | 35025 ft | 463 kts | 17° |
| 2026-04-22 09:07 | 37.75746 | 115.30790 | 34787 ft | 479 kts | 17° |
| 2026-04-22 09:08 | 37.78830 | 115.32285 | 34556 ft | 484 kts | 7° |
| 2026-04-22 09:08 | 37.82130 | 115.33166 | 34321 ft | 484 kts | 357° |
| 2026-04-22 09:08 | 37.85467 | 115.33333 | 34090 ft | 477 kts | 347° |
| 2026-04-22 09:08 | 37.88747 | 115.32912 | 33844 ft | 474 kts | 343° |
| 2026-04-22 09:09 | 37.92033 | 115.32433 | 33575 ft | 476 kts | 344° |
| 2026-04-22 09:09 | 37.95329 | 115.31959 | 33312 ft | 477 kts | 344° |
| 2026-04-22 09:09 | 37.98635 | 115.31489 | 33049 ft | 478 kts | 344° |
| 2026-04-22 09:09 | 38.01944 | 115.31026 | 32793 ft | 479 kts | 344° |
| 2026-04-22 09:10 | 38.05256 | 115.30567 | 32536 ft | 479 kts | 345° |
| 2026-04-22 09:10 | 38.08573 | 115.30107 | 32279 ft | 480 kts | 345° |
| 2026-04-22 09:10 | 38.11892 | 115.29639 | 32026 ft | 480 kts | 344° |
| 2026-04-22 09:10 | 38.15213 | 115.29158 | 31775 ft | 480 kts | 344° |
| 2026-04-22 09:11 | 38.18530 | 115.28664 | 31528 ft | 480 kts | 344° |
| 2026-04-22 09:11 | 38.21849 | 115.28163 | 31282 ft | 481 kts | 344° |
| 2026-04-22 09:11 | 38.25174 | 115.27665 | 31040 ft | 481 kts | 344° |
| 2026-04-22 09:11 | 38.28501 | 115.27169 | 30796 ft | 482 kts | 344° |
| 2026-04-22 09:12 | 38.31830 | 115.26677 | 30555 ft | 482 kts | 345° |
| 2026-04-22 09:12 | 38.35162 | 115.26185 | 30325 ft | 483 kts | 345° |
| 2026-04-22 09:12 | 38.38456 | 115.25696 | 30083 ft | 483 kts | 344° |
| 2026-04-22 09:12 | 38.41800 | 115.25198 | 29817 ft | 483 kts | 345° |
| 2026-04-22 09:13 | 38.45140 | 115.24702 | 29540 ft | 483 kts | 345° |
| 2026-04-22 09:13 | 38.48477 | 115.24204 | 29264 ft | 483 kts | 345° |
| 2026-04-22 09:13 | 38.51833 | 115.23835 | 28983 ft | 490 kts | 352° |
| 2026-04-22 09:13 | 38.55260 | 115.24324 | 28715 ft | 504 kts | 6° |
| 2026-04-22 09:14 | 38.58598 | 115.25864 | 28444 ft | 517 kts | 21° |
| 2026-04-22 09:14 | 38.61617 | 115.28369 | 27772 ft | 516 kts | 35° |
| 2026-04-22 09:14 | 38.64082 | 115.31685 | 26382 ft | 515 kts | 52° |
| 2026-04-22 09:14 | 38.65326 | 115.34323 | 25477 ft | 511 kts | 62° |
| 2026-04-22 09:15 | 38.66773 | 115.38355 | 24218 ft | 499 kts | 64° |
| 2026-04-22 09:15 | 38.68202 | 115.42340 | 22917 ft | 486 kts | 63° |
| 2026-04-22 09:15 | 38.69613 | 115.46211 | 21565 ft | 475 kts | 62° |
| 2026-04-22 09:15 | 38.71003 | 115.49991 | 20291 ft | 464 kts | 62° |
| 2026-04-22 09:16 | 38.72441 | 115.53627 | 19101 ft | 452 kts | 56° |
| 2026-04-22 09:16 | 38.74071 | 115.57081 | 17944 ft | 454 kts | 56° |
| 2026-04-22 09:16 | 38.75689 | 115.60533 | 17152 ft | 448 kts | 56° |
| 2026-04-22 09:16 | 38.77277 | 115.63952 | 16565 ft | 444 kts | 56° |
| 2026-04-22 09:17 | 38.78839 | 115.67337 | 15954 ft | 438 kts | 57° |
| 2026-04-22 09:17 | 38.80375 | 115.70680 | 15354 ft | 435 kts | 57° |
| 2026-04-22 09:17 | 38.81895 | 115.73993 | 14748 ft | 427 kts | 57° |
| 2026-04-22 09:17 | 38.83389 | 115.77246 | 14158 ft | 420 kts | 57° |
| 2026-04-22 09:18 | 38.84861 | 115.80445 | 13570 ft | 414 kts | 58° |
| 2026-04-22 09:18 | 38.86312 | 115.83602 | 12982 ft | 408 kts | 58° |
| 2026-04-22 09:18 | 38.87750 | 115.86731 | 12742 ft | 406 kts | 58° |
| 2026-04-22 09:18 | 38.89184 | 115.89845 | 12754 ft | 406 kts | 57° |
| 2026-04-22 09:19 | 38.90620 | 115.92967 | 12207 ft | 403 kts | 58° |
| 2026-04-22 09:19 | 38.92014 | 115.96004 | 12002 ft | 385 kts | 58° |
| 2026-04-22 09:19 | 38.93340 | 115.98900 | 11870 ft | 367 kts | 57° |
| 2026-04-22 09:19 | 38.94605 | 116.01667 | 11745 ft | 351 kts | 57° |
| 2026-04-22 09:20 | 38.95797 | 116.04279 | 11623 ft | 336 kts | 57° |
| 2026-04-22 09:20 | 38.96967 | 116.06806 | 11496 ft | 322 kts | 54° |
| 2026-04-22 09:20 | 38.98347 | 116.08980 | 11371 ft | 307 kts | 42° |
| 2026-04-22 09:20 | 38.99966 | 116.10681 | 11220 ft | 295 kts | 31° |
| 2026-04-22 09:21 | 39.01708 | 116.12037 | 10915 ft | 291 kts | 29° |
| 2026-04-22 09:21 | 39.03436 | 116.13368 | 10569 ft | 289 kts | 29° |
| 2026-04-22 09:21 | 39.05154 | 116.14698 | 10214 ft | 287 kts | 29° |
| 2026-04-22 09:21 | 39.06718 | 116.16270 | 9996 ft | 284 kts | 45° |
| 2026-04-22 09:22 | 39.07814 | 116.18334 | 9873 ft | 277 kts | 62° |
| 2026-04-22 09:22 | 39.08372 | 116.20670 | 9748 ft | 271 kts | 79° |
| 2026-04-22 09:22 | 39.08598 | 116.23044 | 9586 ft | 263 kts | 80° |
| 2026-04-22 09:22 | 39.08821 | 116.25366 | 9308 ft | 260 kts | 80° |
| 2026-04-22 09:23 | 39.09045 | 116.27670 | 9011 ft | 258 kts | 81° |
| 2026-04-22 09:23 | 39.09267 | 116.29959 | 8680 ft | 257 kts | 81° |
| 2026-04-22 09:23 | 39.09486 | 116.32232 | 8342 ft | 256 kts | 81° |
| 2026-04-22 09:23 | 39.09703 | 116.34498 | 8010 ft | 254 kts | 81° |
| 2026-04-22 09:24 | 39.09919 | 116.36748 | 7684 ft | 252 kts | 81° |
| 2026-04-22 09:24 | 39.10132 | 116.38964 | 7206 ft | 249 kts | 82° |
| 2026-04-22 09:24 | 39.10343 | 116.41178 | 6624 ft | 249 kts | 83° |
| 2026-04-22 09:24 | 39.10545 | 116.43335 | 6358 ft | 235 kts | 83° |
| 2026-04-22 09:25 | 39.10737 | 116.45356 | 6217 ft | 222 kts | 83° |
| 2026-04-22 09:25 | 39.11214 | 116.47185 | 6100 ft | 215 kts | 52° |
| 2026-04-22 09:25 | 39.12392 | 116.48265 | 5954 ft | 210 kts | 15° |
| 2026-04-22 09:25 | 39.13843 | 116.48266 | 5721 ft | 211 kts | 350° |
| 2026-04-22 09:26 | 39.15292 | 116.47996 | 5500 ft | 211 kts | 353° |
| 2026-04-22 09:26 | 39.16750 | 116.47777 | 5286 ft | 211 kts | 354° |
| 2026-04-22 09:26 | 39.18212 | 116.47568 | 5064 ft | 211 kts | 354° |
| 2026-04-22 09:26 | 39.19659 | 116.47386 | 4879 ft | 206 kts | 355° |
| 2026-04-22 09:27 | 39.21046 | 116.47206 | 4644 ft | 200 kts | 354° |
| 2026-04-22 09:27 | 39.22415 | 116.47002 | 4435 ft | 195 kts | 353° |
| 2026-04-22 09:27 | 39.23742 | 116.46797 | 4242 ft | 190 kts | 353° |
| 2026-04-22 09:27 | 39.25035 | 116.46595 | 4048 ft | 186 kts | 353° |
| 2026-04-22 09:28 | 39.26306 | 116.46397 | 3861 ft | 182 kts | 353° |
| 2026-04-22 09:28 | 39.27556 | 116.46201 | 3676 ft | 179 kts | 353° |
| 2026-04-22 09:28 | 39.28762 | 116.46013 | 3588 ft | 171 kts | 353° |
| 2026-04-22 09:28 | 39.29939 | 116.45829 | 3423 ft | 170 kts | 353° |
| 2026-04-22 09:29 | 39.31116 | 116.45644 | 3212 ft | 171 kts | 352° |
| 2026-04-22 09:29 | 39.32298 | 116.45460 | 2997 ft | 171 kts | 353° |
| 2026-04-22 09:29 | 39.33486 | 116.45274 | 2764 ft | 173 kts | 353° |
| 2026-04-22 09:29 | 39.34688 | 116.45085 | 2530 ft | 175 kts | 353° |
| 2026-04-22 09:30 | 39.35905 | 116.44895 | 2300 ft | 177 kts | 353° |
| 2026-04-22 09:30 | 39.37133 | 116.44702 | 2067 ft | 179 kts | 352° |
| 2026-04-22 09:30 | 39.38357 | 116.44510 | 1838 ft | 172 kts | 353° |
| 2026-04-22 09:30 | 39.39495 | 116.44332 | 1613 ft | 159 kts | 354° |
| 2026-04-22 09:31 | 39.40566 | 116.44164 | 1395 ft | 152 kts | 352° |
| 2026-04-22 09:31 | 39.41592 | 116.44003 | 1195 ft | 147 kts | 353° |
| 2026-04-22 09:31 | 39.42599 | 116.43845 | 999 ft | 145 kts | 352° |
| 2026-04-22 09:31 | 39.43604 | 116.43687 | 815 ft | 147 kts | 352° |
| 2026-04-22 09:32 | 39.44608 | 116.43529 | 626 ft | 144 kts | 353° |
| 2026-04-22 09:32 | 39.45596 | 116.43383 | 429 ft | 143 kts | 353° |
| 2026-04-22 09:32 | 39.46576 | 116.43228 | 250 ft | 141 kts | 352° |
| 2026-04-22 09:32 | 39.47550 | 116.43078 | 100 ft | 137 kts | 351° |
| 2026-04-22 09:33 | 39.48381 | 116.42944 | 99 ft | 99 kts | 353° |
| 2026-04-22 09:33 | 39.48893 | 116.42866 | 94 ft | 49 kts | 354° |
| 2026-04-22 09:33 | 39.49117 | 116.42791 | 95 ft | 21 kts | 333° |
| 2026-04-22 09:33 | 39.49246 | 116.42691 | 93 ft | 24 kts | 326° |
| 2026-04-22 09:34 | 39.49396 | 116.42563 | 89 ft | 28 kts | 323° |
| 2026-04-22 09:34 | 39.49538 | 116.42439 | 88 ft | 10 kts | 327° |
| 2026-04-22 09:34 | 39.49605 | 116.42414 | 89 ft | 10 kts | 354° |
| 2026-04-22 09:35 | 39.49730 | 116.42395 | 89 ft | 8 kts | 353° |
| 2026-04-22 09:35 | 39.49787 | 116.42386 | 88 ft | 8 kts | 353° |
| 2026-04-22 09:35 | 39.49840 | 116.42378 | 87 ft | 7 kts | 353° |
| 2026-04-22 09:35 | 39.49889 | 116.42370 | 89 ft | 7 kts | 353° |
| 2026-04-22 09:36 | 39.49935 | 116.42363 | 88 ft | 6 kts | 353° |
| 2026-04-22 09:36 | 39.49977 | 116.42356 | 87 ft | 6 kts | 353° |
| 2026-04-22 09:36 | 39.50017 | 116.42350 | 85 ft | 6 kts | 353° |
| 2026-04-22 09:36 | 39.50054 | 116.42344 | 87 ft | 5 kts | 353° |
| 2026-04-22 09:37 | 39.50088 | 116.42339 | 87 ft | 5 kts | 353° |
| 2026-04-22 09:37 | 39.50119 | 116.42334 | 87 ft | 4 kts | 353° |
| 2026-04-22 09:37 | 39.50148 | 116.42330 | 87 ft | 4 kts | 353° |
| 2026-04-22 09:37 | 39.50199 | 116.42322 | 88 ft | 11 kts | 353° |
| 2026-04-22 09:38 | 39.50278 | 116.42306 | 88 ft | 10 kts | 336° |
| 2026-04-22 09:38 | 39.50297 | 116.42235 | 85 ft | 8 kts | 262° |
| 2026-04-22 09:38 | 39.50290 | 116.42164 | 86 ft | 8 kts | 263° |
| 2026-04-22 09:38 | 39.50284 | 116.42100 | 89 ft | 7 kts | 263° |
| 2026-04-22 09:39 | 39.50279 | 116.42045 | 86 ft | 6 kts | 263° |
| 2026-04-22 09:39 | 39.50275 | 116.41996 | 85 ft | 5 kts | 263° |
| 2026-04-22 09:39 | 39.50271 | 116.41954 | 87 ft | 4 kts | 263° |
| 2026-04-22 09:39 | 39.50268 | 116.41918 | 85 ft | 4 kts | 263° |
| 2026-04-22 09:40 | 39.50265 | 116.41888 | 86 ft | 3 kts | 263° |
| 2026-04-22 09:40 | 39.50263 | 116.41862 | 87 ft | 3 kts | 263° |
| 2026-04-22 09:40 | 39.50259 | 116.41832 | 89 ft | 5 kts | 261° |
| 2026-04-22 09:40 | 39.50254 | 116.41794 | 87 ft | 4 kts | 261° |
| 2026-04-22 09:41 | 39.50250 | 116.41763 | 85 ft | 3 kts | 261° |
| 2026-04-22 09:41 | 39.50247 | 116.41736 | 85 ft | 3 kts | 261° |
| 2026-04-22 09:41 | 39.50244 | 116.41713 | 89 ft | 2 kts | 261° |
| 2026-04-22 09:41 | 39.50241 | 116.41652 | 85 ft | 14 kts | 264° |
| 2026-04-22 09:42 | 39.50229 | 116.41513 | 89 ft | 10 kts | 263° |
| 2026-04-22 09:42 | 39.50255 | 116.41476 | 88 ft | 5 kts | 343° |
| 2026-04-22 09:42 | 39.50291 | 116.41470 | 87 ft | 5 kts | 353° |
| 2026-04-22 09:42 | 39.50346 | 116.41461 | 87 ft | 8 kts | 353° |
| 2026-04-22 09:43 | 39.50401 | 116.41447 | 86 ft | 8 kts | 334° |
| 2026-04-22 09:43 | 39.50429 | 116.41395 | 85 ft | 7 kts | 302° |
| 2026-04-22 09:43 | 39.50452 | 116.41347 | 89 ft | 5 kts | 302° |
| 2026-04-22 09:43 | 39.50458 | 116.41335 | 85 ft | 1 kts | 302° |
| 2026-04-22 09:44 | 39.50461 | 116.41328 | 88 ft | 1 kts | 302° |
| 2026-04-22 09:44 | 39.50465 | 116.41320 | 88 ft | 1 kts | 302° |
| 2026-04-22 09:44 | 39.50467 | 116.41316 | 87 ft | 0 kts | 302° |
| 2026-04-22 10:30 | 39.50467 | 116.41317 | 85 ft | 0 kts | 302° |